Time;durP1;ratioP1;P1;durP2;ratioP2;P2;SDS_P1;SDS_P2;PMS_P1;PMS_P2;Temp;Humidity;BMP_temperature;BMP_pressure;BME280_temperature;BME280_humidity;BME280_pressure;Samples;Min_cycle;Max_cycle;Signal;HPM_P1;HPM_P2
2021/09/18 00:03:58;;;;;;;2.90;2.00;;;;;;;14.03;82.89;99886.66;10454777;28;20045;-81
2021/09/18 00:09:01;;;;;;;2.47;2.00;;;;;;;13.90;83.70;99893.47;10452731;28;20060;-81
2021/09/18 00:14:04;;;;;;;3.78;2.13;;;;;;;13.97;81.78;99884.28;10471584;28;20044;-80
2021/09/18 00:19:06;;;;;;;2.53;1.40;;;;;;;13.94;82.08;99886.22;10472681;28;20537;-80
2021/09/18 00:24:07;;;;;;;2.20;1.60;;;;;;;14.12;80.63;99888.84;10451842;28;20044;-81
2021/09/18 00:29:09;;;;;;;2.50;1.48;;;;;;;13.86;82.06;99889.25;10450564;28;20056;-82
2021/09/18 00:34:10;;;;;;;2.90;1.50;;;;;;;13.88;82.02;99893.53;10469021;28;20041;-80
2021/09/18 00:39:12;;;;;;;2.53;1.30;;;;;;;13.94;80.99;99895.00;10469414;28;20106;-80
2021/09/18 00:44:18;;;;;;;2.22;1.17;;;;;;;14.05;80.35;99887.44;10449673;28;20487;-82
2021/09/18 00:49:44;;;;;;;2.60;1.40;;;;;;;13.90;81.26;99893.47;10449524;28;20049;-82
2021/09/18 00:54:47;;;;;;;2.60;1.92;;;;;;;13.86;82.07;99886.63;10347378;28;20046;-82
2021/09/18 00:59:49;;;;;;;1.70;1.50;;;;;;;13.78;83.39;99884.31;10353218;28;20037;-82
2021/09/18 01:04:51;;;;;;;3.47;2.30;;;;;;;13.89;82.90;99891.72;10372385;28;20084;-82
2021/09/18 01:09:53;;;;;;;4.32;2.30;;;;;;;13.95;82.92;99891.47;10388931;28;20065;-82
2021/09/18 01:14:54;;;;;;;6.28;2.55;;;;;;;13.92;83.44;99888.94;10387482;28;20072;-82
2021/09/18 01:19:56;;;;;;;4.07;1.80;;;;;;;13.76;83.20;99888.81;10390204;28;20045;-81
2021/09/18 01:24:57;;;;;;;2.50;1.80;;;;;;;13.82;83.56;99893.81;10387115;28;20042;-81
2021/09/18 01:29:59;;;;;;;1.80;1.60;;;;;;;13.97;82.24;99888.72;10386214;28;20046;-82
2021/09/18 01:35:00;;;;;;;2.60;1.88;;;;;;;13.85;83.06;99890.16;10369591;28;20068;-81
2021/09/18 01:40:03;;;;;;;2.42;2.00;;;;;;;13.93;82.83;99892.44;10386959;28;20464;-81
2021/09/18 01:45:05;;;;;;;4.22;2.92;;;;;;;13.95;82.40;99887.97;10385993;28;20054;-82
2021/09/18 01:50:28;;;;;;;2.70;2.50;;;;;;;13.47;85.36;99898.09;10386179;28;20042;-82
2021/09/18 01:55:31;;;;;;;2.45;2.25;;;;;;;13.84;82.99;99891.94;10369468;28;20104;-81
2021/09/18 02:00:41;;;;;;;3.55;2.13;;;;;;;13.85;82.25;99893.66;10386487;28;20046;-82
2021/09/18 02:05:44;;;;;;;2.17;1.98;;;;;;;13.98;80.97;99899.22;10386356;28;20496;-82
2021/09/18 02:10:45;;;;;;;3.03;1.65;;;;;;;13.60;83.20;99896.59;10368745;28;20048;-82
2021/09/18 02:15:47;;;;;;;2.15;1.50;;;;;;;13.49;83.22;99898.03;10385947;28;20049;-82
2021/09/18 02:20:49;;;;;;;2.78;1.63;;;;;;;13.52;83.53;99887.31;10384998;28;20065;-82
2021/09/18 02:25:50;;;;;;;1.80;1.15;;;;;;;13.50;83.05;99897.97;10386153;28;20092;-82
2021/09/18 02:30:52;;;;;;;2.15;1.10;;;;;;;13.57;82.26;99890.59;10368154;28;20073;-82
2021/09/18 02:35:53;;;;;;;1.63;1.13;;;;;;;13.41;82.96;99887.81;10383417;28;20065;-82
2021/09/18 02:40:55;;;;;;;2.20;1.15;;;;;;;13.32;83.63;99885.59;10369054;28;20050;-82
2021/09/18 02:45:56;;;;;;;2.83;1.00;;;;;;;13.63;79.88;99883.28;10391338;28;20077;-82
2021/09/18 02:50:58;;;;;;;1.73;0.90;;;;;;;13.53;80.04;99884.59;10390917;28;20069;-82
2021/09/18 02:56:02;;;;;;;0.90;0.75;;;;;;;13.54;78.24;99885.47;10372975;28;20053;-82
2021/09/18 03:01:06;;;;;;;2.70;0.60;;;;;;;13.45;79.29;99883.25;10392422;28;20053;-82
2021/09/18 03:06:08;;;;;;;1.00;0.60;;;;;;;13.52;77.90;99872.34;10395207;28;20045;-82
2021/09/18 03:11:10;;;;;;;2.72;0.60;;;;;;;13.37;79.56;99873.91;10392910;28;20097;-82
2021/09/18 03:16:11;;;;;;;0.98;0.70;;;;;;;13.44;78.77;99876.25;10368901;28;20085;-82
2021/09/18 03:21:15;;;;;;;2.15;0.70;;;;;;;13.33;80.06;99866.19;10387123;28;20396;-84
2021/09/18 03:26:17;;;;;;;1.05;0.70;;;;;;;13.31;80.31;99868.88;10371473;28;20054;-82
2021/09/18 03:31:19;;;;;;;2.45;0.88;;;;;;;13.34;79.92;99873.19;10387358;28;20042;-83
2021/09/18 03:36:20;;;;;;;9.05;1.35;;;;;;;13.34;79.90;99873.19;10387707;28;20046;-82
2021/09/18 03:41:22;;;;;;;7.95;0.85;;;;;;;13.12;81.89;99865.34;10385702;28;20138;-83
2021/09/18 03:46:23;;;;;;;2.13;0.88;;;;;;;13.30;80.21;99866.34;10387327;28;20042;-83
2021/09/18 03:51:25;;;;;;;1.25;0.80;;;;;;;13.20;80.03;99880.84;10385923;28;20053;-82
2021/09/18 03:56:27;;;;;;;3.83;1.38;;;;;;;13.22;80.19;99871.94;10369609;28;20054;-82
2021/09/18 04:01:28;;;;;;;1.40;0.70;;;;;;;13.16;80.44;99869.56;10385089;28;20045;-82
2021/09/18 04:06:30;;;;;;;2.03;0.80;;;;;;;13.15;79.94;99878.41;10387130;28;20053;-82
2021/09/18 04:11:32;;;;;;;4.30;1.02;;;;;;;13.31;79.20;99878.59;10387159;28;20073;-82
2021/09/18 04:16:33;;;;;;;1.60;0.70;;;;;;;13.27;79.57;99882.28;10387365;28;20112;-83
2021/09/18 04:21:35;;;;;;;1.08;0.65;;;;;;;13.22;79.24;99878.97;10387069;28;20058;-82
2021/09/18 04:26:36;;;;;;;2.83;0.60;;;;;;;13.17;79.69;99884.47;10369293;28;20046;-82
2021/09/18 04:31:38;;;;;;;1.08;0.90;;;;;;;13.12;79.22;99889.09;10368586;28;20046;-82
2021/09/18 04:36:39;;;;;;;1.90;0.70;;;;;;;13.22;77.80;99886.91;10386715;28;20053;-82
2021/09/18 04:41:41;;;;;;;3.00;0.80;;;;;;;12.95;79.95;99887.19;10386456;28;20073;-82
2021/09/18 04:46:42;;;;;;;2.05;0.80;;;;;;;12.86;80.53;99898.16;10369393;28;20486;-82
2021/09/18 04:51:44;;;;;;;0.65;0.50;;;;;;;13.27;78.04;99906.06;10385872;28;20488;-82
2021/09/18 04:56:45;;;;;;;2.05;0.60;;;;;;;12.97;79.56;99898.56;10386847;28;20050;-82
2021/09/18 05:01:47;;;;;;;1.52;0.60;;;;;;;12.94;80.03;99906.59;10384303;28;20046;-83
2021/09/18 05:06:49;;;;;;;2.83;0.80;;;;;;;13.10;79.25;99901.50;10382950;28;20056;-82
2021/09/18 05:11:50;;;;;;;1.95;0.77;;;;;;;13.20;78.12;99908.09;10385089;28;20046;-83
2021/09/18 05:16:52;;;;;;;1.20;0.90;;;;;;;13.12;78.14;99900.50;10354253;28;20053;-82
2021/09/18 05:21:53;;;;;;;0.95;0.70;;;;;;;13.05;78.43;99908.75;10367452;28;20511;-82
2021/09/18 05:26:55;;;;;;;1.15;0.65;;;;;;;13.25;77.40;99915.84;10388236;28;20080;-82
2021/09/18 05:31:57;;;;;;;2.80;1.00;;;;;;;13.18;78.30;99911.72;10368596;28;20458;-82
2021/09/18 05:36:58;;;;;;;1.80;0.93;;;;;;;13.38;76.87;99917.00;10368776;28;20046;-82
2021/09/18 05:42:00;;;;;;;1.40;0.90;;;;;;;13.11;78.05;99917.28;10368220;28;20050;-82
2021/09/18 05:47:02;;;;;;;1.58;0.90;;;;;;;13.26;77.40;99925.47;10367530;28;20104;-82
2021/09/18 05:52:04;;;;;;;2.25;0.95;;;;;;;13.31;77.06;99926.97;10382971;28;20042;-82
2021/09/18 05:57:05;;;;;;;1.20;0.88;;;;;;;13.12;78.53;99932.19;10384860;28;20054;-82
2021/09/18 06:02:07;;;;;;;2.85;1.25;;;;;;;13.29;76.99;99930.63;10382936;28;20046;-82
2021/09/18 06:07:09;;;;;;;1.50;1.15;;;;;;;13.12;78.61;99939.25;10383977;28;20050;-82
2021/09/18 06:12:10;;;;;;;2.83;1.30;;;;;;;13.14;78.48;99935.59;10365951;28;20050;-83
2021/09/18 06:17:12;;;;;;;1.88;1.30;;;;;;;13.36;77.37;99938.19;10389514;28;20100;-82
2021/09/18 06:22:14;;;;;;;2.55;1.02;;;;;;;13.30;77.51;99929.69;10374649;28;20096;-82
2021/09/18 06:27:15;;;;;;;1.67;1.00;;;;;;;13.53;76.26;99941.84;10393706;28;20045;-81
2021/09/18 06:32:17;;;;;;;1.88;1.27;;;;;;;13.46;77.16;99946.56;10391365;28;20061;-82
2021/09/18 06:37:19;;;;;;;2.45;0.90;;;;;;;13.45;77.58;99947.47;10375377;28;20049;-81
2021/09/18 06:42:20;;;;;;;1.17;1.00;;;;;;;13.54;77.14;99949.69;10393679;28;20104;-81
2021/09/18 06:47:22;;;;;;;1.88;1.38;;;;;;;13.60;75.42;99949.44;10394087;28;20085;-82
2021/09/18 06:52:23;;;;;;;1.88;0.90;;;;;;;13.71;75.14;99948.94;10378066;28;20046;-84
2021/09/18 06:57:26;;;;;;;2.97;1.20;;;;;;;13.65;75.91;99943.94;10379060;28;20053;-86
2021/09/18 07:02:33;;;;;;;2.45;1.77;;;;;;;13.59;74.95;99955.66;10378861;28;20109;-86
2021/09/18 07:07:37;;;;;;;1.38;1.20;;;;;;;13.55;75.04;99956.72;10380224;28;20061;-86
2021/09/18 07:12:42;;;;;;;3.00;1.10;;;;;;;13.54;75.02;99964.69;10388660;28;20038;-86
2021/09/18 07:17:44;;;;;;;1.50;1.13;;;;;;;13.51;76.04;99963.06;10375614;28;20049;-85
2021/09/18 07:22:52;;;;;;;4.03;1.20;;;;;;;13.75;73.85;99962.84;10402144;28;20072;-84
2021/09/18 07:27:58;;;;;;;2.15;1.00;;;;;;;13.59;75.96;99960.94;10380826;28;20045;-84
2021/09/18 07:32:59;;;;;;;1.27;0.95;;;;;;;13.72;74.03;99963.00;10398953;28;20130;-83
2021/09/18 07:38:03;;;;;;;1.27;0.77;;;;;;;13.92;72.10;99960.28;10393742;28;20515;-82
2021/09/18 07:43:05;;;;;;;1.60;0.80;;;;;;;13.98;71.16;99962.63;10395041;28;20042;-81
2021/09/18 07:48:07;;;;;;;1.00;0.70;;;;;;;14.06;71.83;99967.56;10401940;28;20100;-81
2021/09/18 07:53:11;;;;;;;1.13;0.75;;;;;;;14.10;72.47;99971.78;10395070;28;20038;-79
2021/09/18 07:58:15;;;;;;;1.23;0.70;;;;;;;14.05;71.91;99969.38;10391633;28;20041;-81
2021/09/18 08:03:18;;;;;;;2.00;0.70;;;;;;;14.27;69.98;99961.28;10388051;28;20042;-80
2021/09/18 08:08:20;;;;;;;0.70;0.57;;;;;;;14.26;70.08;99964.00;10388574;28;20053;-80
2021/09/18 08:13:21;;;;;;;1.73;0.60;;;;;;;14.50;70.47;99965.47;10387772;28;20049;-80
2021/09/18 08:18:23;;;;;;;1.48;0.70;;;;;;;14.45;70.07;99963.97;10369445;28;20108;-80
2021/09/18 08:23:24;;;;;;;1.05;0.60;;;;;;;14.44;68.95;99970.19;10353614;28;20050;-81
2021/09/18 08:28:26;;;;;;;1.65;0.60;;;;;;;14.52;68.06;99966.25;10388495;28;20104;-84
2021/09/18 08:33:28;;;;;;;2.83;0.50;;;;;;;14.51;67.95;99966.31;10371182;28;20042;-82
2021/09/18 08:38:30;;;;;;;1.05;0.30;;;;;;;14.57;68.73;99966.91;10388600;28;20041;-81
2021/09/18 08:43:31;;;;;;;1.70;0.55;;;;;;;14.57;68.99;99969.53;10389073;28;20046;-81
2021/09/18 08:48:38;;;;;;;0.88;0.40;;;;;;;14.88;68.16;99971.50;10390794;28;20496;-81
2021/09/18 08:53:39;;;;;;;1.30;0.35;;;;;;;15.08;66.98;99973.13;10387887;28;20038;-81
2021/09/18 08:58:41;;;;;;;2.33;0.43;;;;;;;14.91;66.87;99980.22;10387128;28;20049;-81
2021/09/18 09:03:42;;;;;;;2.55;0.45;;;;;;;15.15;66.48;99981.63;10387519;28;20130;-81
2021/09/18 09:08:55;;;;;;;0.75;0.60;;;;;;;14.90;67.13;99982.00;10385348;28;20380;-81
2021/09/18 09:14:01;;;;;;;1.23;0.47;;;;;;;14.71;68.22;99997.09;10386371;28;20081;-81
2021/09/18 09:19:15;;;;;;;3.05;0.98;;;;;;;14.66;69.15;100002.63;10385636;28;20428;-81
2021/09/18 09:24:19;;;;;;;1.13;0.52;;;;;;;14.50;70.97;99999.84;10383979;28;20069;-81
2021/09/18 09:29:43;;;;;;;1.60;0.60;;;;;;;14.35;71.93;100004.06;10367326;28;20065;-81
2021/09/18 09:34:52;;;;;;;2.65;0.80;;;;;;;14.36;72.09;99999.63;10385781;28;20041;-81
2021/09/18 09:40:01;;;;;;;1.90;0.60;;;;;;;14.48;71.57;100008.78;10384195;28;20084;-81
2021/09/18 09:45:10;;;;;;;3.70;0.63;;;;;;;14.58;72.02;100010.94;10387776;28;20041;-81
2021/09/18 09:50:13;;;;;;;1.83;0.80;;;;;;;14.47;71.48;100005.25;10389558;28;20052;-80
2021/09/18 09:55:18;;;;;;;2.05;0.55;;;;;;;14.61;72.71;100004.63;10393313;28;20188;-81
2021/09/18 10:00:19;;;;;;;0.82;0.70;;;;;;;14.54;72.11;100005.84;10394943;28;20045;-83
2021/09/18 10:05:21;;;;;;;2.70;0.80;;;;;;;14.60;72.41;100009.03;10406968;28;20034;-83
2021/09/18 10:10:23;;;;;;;1.08;0.55;;;;;;;14.70;73.50;100000.66;10398892;28;20121;-82
2021/09/18 10:15:27;;;;;;;1.13;0.70;;;;;;;14.70;72.34;100006.84;10375114;28;20052;-81
2021/09/18 10:25:57;;;;;;;1.85;0.82;;;;;;;14.74;72.89;100003.09;10377610;28;20160;-82
2021/09/18 10:31:10;;;;;;;2.70;1.10;;;;;;;14.75;74.50;100010.09;10393286;28;20053;-80
2021/09/18 10:36:15;;;;;;;1.10;0.80;;;;;;;14.85;72.23;100014.00;10376049;28;20479;-82
2021/09/18 10:41:24;;;;;;;1.27;0.90;;;;;;;14.62;73.89;100015.13;10363193;28;20266;-82
2021/09/18 10:46:45;;;;;;;2.28;1.00;;;;;;;14.51;74.79;100016.56;10386615;28;20563;-82
2021/09/18 10:51:46;;;;;;;2.80;1.27;;;;;;;14.55;76.21;100019.00;10390248;28;20050;-80
2021/09/18 10:56:55;;;;;;;1.67;0.70;;;;;;;14.76;74.45;100021.53;10389059;28;20050;-85
2021/09/18 11:02:32;;;;;;;2.83;1.10;;;;;;;14.48;77.88;100041.41;10390620;28;20045;-85
2021/09/18 11:07:40;;;;;;;1.60;1.00;;;;;;;14.68;78.71;100037.78;10399683;28;20052;-85
2021/09/18 11:13:05;;;;;;;1.45;1.30;;;;;;;14.51;81.03;100037.72;10383042;28;20042;-84
2021/09/18 11:18:08;;;;;;;1.80;1.30;;;;;;;14.31;82.99;100042.16;10402234;28;20045;-84
2021/09/18 11:23:10;;;;;;;3.15;1.80;;;;;;;14.40;83.07;100046.16;10396417;28;20050;-85
2021/09/18 11:28:14;;;;;;;1.33;1.23;;;;;;;14.24;83.84;100045.16;10403249;28;20049;-84
2021/09/18 11:33:17;;;;;;;2.00;1.80;;;;;;;14.32;84.45;100035.09;10381496;28;20049;-84
2021/09/18 11:38:24;;;;;;;1.52;1.42;;;;;;;14.35;84.31;100037.59;10399012;28;20046;-86
2021/09/18 11:43:26;;;;;;;;;;;;;;;14.36;83.32;100034.88;10397143;28;20104;-83
2021/09/18 11:48:29;;;;;;;1.73;1.10;;;;;;;14.42;83.67;100041.63;10393085;28;20256;-84
2021/09/18 11:53:30;;;;;;;1.42;1.25;;;;;;;14.28;85.49;100034.38;10392727;28;20046;-84
2021/09/18 11:58:37;;;;;;;1.50;1.40;;;;;;;14.31;86.03;100031.59;10392461;28;20061;-83
2021/09/18 12:03:40;;;;;;;1.40;1.20;;;;;;;14.56;85.92;100030.44;10393586;28;20042;-83
2021/09/18 12:08:44;;;;;;;2.25;1.02;;;;;;;14.67;86.11;100045.81;10393627;28;20046;-83
2021/09/18 12:13:51;;;;;;;1.45;1.17;;;;;;;14.97;84.58;100035.50;10392315;28;20084;-84
2021/09/18 12:18:58;;;;;;;1.00;0.90;;;;;;;14.91;86.19;100046.38;10395340;28;20045;-85
2021/09/18 12:24:03;;;;;;;1.58;1.25;;;;;;;14.93;84.56;100039.25;10393336;28;20045;-84
2021/09/18 12:29:10;;;;;;;1.40;1.00;;;;;;;15.23;82.07;100027.13;10396705;28;20042;-85
2021/09/18 12:34:23;;;;;;;1.38;1.10;;;;;;;15.07;81.18;100026.16;10375398;28;20064;-86
2021/09/18 12:39:40;;;;;;;;;;;;;;;;;;;;;
2021/09/18 12:45:34;;;;;;;1.50;1.20;;;;;;;15.51;80.71;100031.84;10323457;28;20062;-84
2021/09/18 12:51:19;;;;;;;1.15;1.10;;;;;;;15.39;81.05;100029.81;10337974;28;20069;-85
2021/09/18 12:56:22;;;;;;;1.00;0.95;;;;;;;15.66;78.38;100024.03;10312931;28;20093;-84
2021/09/18 13:01:42;;;;;;;1.67;0.90;;;;;;;15.59;78.73;100021.69;10354576;28;20050;-85
2021/09/18 13:06:57;;;;;;;1.30;1.20;;;;;;;15.57;79.30;100022.69;10351266;23;20046;-79
2021/09/18 13:12:12;;;;;;;1.30;1.00;;;;;;;15.72;78.96;100024.59;10361211;28;20050;-82
2021/09/18 13:17:13;;;;;;;1.10;1.10;;;;;;;15.85;77.78;100022.16;10364304;28;20046;-81
2021/09/18 13:22:22;;;;;;;0.68;0.60;;;;;;;15.71;79.70;100027.28;10358380;28;20392;-81
2021/09/18 13:27:24;;;;;;;1.25;1.15;;;;;;;15.57;79.55;100028.84;10360380;28;20101;-83
2021/09/18 13:32:27;;;;;;;1.35;1.30;;;;;;;15.33;81.57;100022.19;10372876;28;20061;-83
2021/09/18 13:37:28;;;;;;;1.92;1.83;;;;;;;15.22;82.12;100027.16;10367798;28;20065;-82
2021/09/18 13:42:30;;;;;;;2.28;2.10;;;;;;;15.35;82.33;100017.66;10372445;28;20050;-81
2021/09/18 13:47:31;;;;;;;2.47;2.28;;;;;;;15.53;81.16;100018.50;10366481;28;20069;-82
2021/09/18 13:52:34;;;;;;;2.03;1.92;;;;;;;15.50;81.54;100005.44;10360605;28;20145;-80
2021/09/18 13:57:39;;;;;;;3.22;2.30;;;;;;;15.60;81.06;100006.66;10362712;28;20050;-80
2021/09/18 14:02:41;;;;;;;2.90;2.70;;;;;;;15.59;80.86;100005.78;10364375;28;20061;-82
2021/09/18 14:07:43;;;;;;;3.53;3.30;;;;;;;15.44;81.64;100003.94;10373940;28;20057;-82
2021/09/18 14:12:45;;;;;;;3.55;3.35;;;;;;;15.33;83.71;100007.16;10373265;28;20042;-81
2021/09/18 14:17:48;;;;;;;4.65;4.25;;;;;;;15.45;83.14;100005.66;10367678;28;20061;-82
2021/09/18 14:22:49;;;;;;;4.93;4.55;;;;;;;15.31;84.66;100003.72;10368426;28;20065;-80
2021/09/18 14:27:51;;;;;;;4.78;4.40;;;;;;;15.34;84.15;100002.72;10364821;28;20050;-82
2021/09/18 14:32:53;;;;;;;4.72;4.43;;;;;;;15.66;81.63;99995.75;10351695;28;20047;-81
2021/09/18 14:37:55;;;;;;;4.05;3.83;;;;;;;15.60;81.65;99993.41;10360473;28;20069;-80
2021/09/18 14:42:57;;;;;;;4.07;3.78;;;;;;;15.43;81.91;99991.63;10356692;28;20070;-82
2021/09/18 14:47:58;;;;;;;3.70;3.40;;;;;;;15.57;83.16;100005.00;10370503;28;20072;-82
2021/09/18 14:53:00;;;;;;;4.70;4.35;;;;;;;15.64;82.11;99998.50;10348451;28;20050;-83
2021/09/18 14:58:11;;;;;;;4.38;4.07;;;;;;;15.63;82.64;99996.75;10383047;28;20073;-83
2021/09/18 15:03:12;;;;;;;4.47;4.18;;;;;;;15.39;84.95;100000.69;10389045;28;20447;-82
2021/09/18 15:08:14;;;;;;;6.00;5.60;;;;;;;15.51;85.01;99994.75;10392727;28;20056;-81
2021/09/18 15:13:15;;;;;;;5.97;5.57;;;;;;;15.49;86.53;99990.44;10390931;28;20041;-81
2021/09/18 15:18:17;;;;;;;6.97;6.57;;;;;;;15.26;89.69;99987.22;10418106;28;20049;-81
2021/09/18 15:23:20;;;;;;;6.63;6.25;;;;;;;15.21;90.32;99988.41;10408748;28;20034;-80
2021/09/18 15:28:22;;;;;;;8.13;7.72;;;;;;;15.15;91.17;99994.88;10428291;28;20101;-79
2021/09/18 15:33:24;;;;;;;8.07;7.68;;;;;;;14.86;95.43;99997.19;10428013;28;20094;-81
2021/09/18 15:38:26;;;;;;;7.97;7.57;;;;;;;15.25;92.31;99985.50;10413546;28;20052;-82
2021/09/18 15:43:29;;;;;;;3.13;2.92;;;;;;;14.87;92.44;99996.28;10413441;28;20462;-82
2021/09/18 15:48:31;;;;;;;2.08;1.98;;;;;;;14.76;94.05;99995.09;10423269;28;20042;-82
2021/09/18 15:53:34;;;;;;;3.75;3.45;;;;;;;14.59;95.80;99996.75;10426863;28;20050;-82
2021/09/18 15:58:37;;;;;;;2.42;1.60;;;;;;;14.48;96.82;99998.19;10427568;28;20026;-82
2021/09/18 16:03:40;;;;;;;2.90;2.50;;;;;;;14.26;98.71;100015.09;10428674;28;20022;-80
2021/09/18 16:08:42;;;;;;;1.90;1.45;;;;;;;14.33;97.44;100016.50;10426737;28;20030;-81
2021/09/18 16:13:44;;;;;;;2.05;1.70;;;;;;;14.22;96.77;100026.72;10413455;28;20104;-82
2021/09/18 16:18:45;;;;;;;2.03;1.92;;;;;;;14.07;97.24;100025.63;10387724;28;20049;-82
2021/09/18 16:23:47;;;;;;;2.88;2.72;;;;;;;14.35;96.04;100021.72;10389014;28;20041;-85
2021/09/18 16:28:49;;;;;;;3.63;3.42;;;;;;;14.01;97.20;100023.28;10374348;28;20057;-86
2021/09/18 16:33:50;;;;;;;3.90;3.60;;;;;;;13.98;97.47;100027.84;10409123;28;20033;-84
2021/09/18 16:38:53;;;;;;;3.38;3.10;;;;;;;13.99;97.26;100022.53;10419558;28;20042;-83
2021/09/18 16:43:55;;;;;;;6.90;6.38;;;;;;;14.13;97.25;100025.38;10386899;28;20074;-83
2021/09/18 16:48:56;;;;;;;6.20;5.80;;;;;;;14.31;95.48;100034.22;10412692;28;20081;-83
2021/09/18 16:53:58;;;;;;;5.88;5.47;;;;;;;14.21;96.45;100030.31;10404824;28;20050;-83
2021/09/18 16:59:00;;;;;;;4.28;3.65;;;;;;;14.19;97.05;100034.78;10418928;28;20040;-82
2021/09/18 17:04:02;;;;;;;4.20;3.90;;;;;;;14.22;96.90;100037.31;10416630;22;20041;-72
2021/09/18 17:09:04;;;;;;;4.05;3.85;;;;;;;13.95;97.59;100043.88;10368212;28;20057;-73
2021/09/18 17:14:06;;;;;;;6.63;6.13;;;;;;;13.94;99.31;100048.28;10374763;28;20108;-74
2021/09/18 17:19:08;;;;;;;4.07;3.88;;;;;;;13.88;97.98;100057.34;10358011;28;20046;-73
2021/09/18 17:24:10;;;;;;;7.40;4.65;;;;;;;13.73;99.33;100059.81;10347726;28;20108;-72
2021/09/18 17:29:12;;;;;;;5.30;5.00;;;;;;;13.69;98.71;100064.38;10371829;28;20049;-72
2021/09/18 17:34:13;;;;;;;5.65;5.32;;;;;;;13.59;99.78;100076.25;10334518;28;20408;-73
2021/09/18 17:39:15;;;;;;;5.10;4.80;;;;;;;13.63;98.99;100076.09;10334213;28;20050;-72
2021/09/18 17:44:17;;;;;;;5.82;5.32;;;;;;;13.65;98.05;100089.22;10335285;28;20048;-72
2021/09/18 17:49:18;;;;;;;5.53;5.03;;;;;;;13.71;95.33;100088.09;10333494;28;20051;-73
2021/09/18 17:54:20;;;;;;;4.53;4.28;;;;;;;13.57;96.94;100092.19;10334951;28;20042;-73
2021/09/18 17:59:21;;;;;;;4.43;3.83;;;;;;;13.53;95.95;100103.78;10333992;28;20046;-73
2021/09/18 18:04:23;;;;;;;4.55;4.25;;;;;;;13.45;96.55;100103.25;10317222;28;20050;-73
2021/09/18 18:09:24;;;;;;;4.63;4.25;;;;;;;13.26;98.45;100102.31;10320095;28;20055;-72
2021/09/18 18:14:26;;;;;;;5.80;5.40;;;;;;;13.35;99.28;100094.03;10343745;28;20093;-72
2021/09/18 18:19:27;;;;;;;5.03;4.65;;;;;;;13.48;97.37;100103.13;10326859;28;20158;-72
2021/09/18 18:24:29;;;;;;;4.45;4.15;;;;;;;13.60;96.53;100115.81;10347029;28;20061;-72
2021/09/18 18:29:31;;;;;;;4.57;4.18;;;;;;;13.57;97.22;100101.88;10345408;28;20370;-71
2021/09/18 18:34:33;;;;;;;6.93;6.30;;;;;;;13.67;96.84;100110.25;10312796;28;20046;-72
2021/09/18 18:39:35;;;;;;;7.00;5.32;;;;;;;13.51;97.00;100120.66;10330812;28;20471;-73
2021/09/18 18:44:36;;;;;;;5.97;5.60;;;;;;;13.56;97.45;100126.59;10346875;28;20070;-75
2021/09/18 18:49:39;;;;;;;6.93;6.40;;;;;;;13.52;96.92;100135.56;10331215;28;20054;-73
2021/09/18 18:54:42;;;;;;;4.80;4.40;;;;;;;13.62;95.26;100135.09;10327315;28;20117;-73
2021/09/18 18:59:44;;;;;;;5.00;4.70;;;;;;;13.57;95.59;100138.88;10343474;28;20078;-74
2021/09/18 19:04:46;;;;;;;4.78;4.40;;;;;;;13.41;95.83;100143.91;10375992;22;20033;-72
2021/09/18 19:09:49;;;;;;;5.13;3.85;;;;;;;13.40;94.91;100150.13;10465821;28;20041;-71
2021/09/18 19:14:53;;;;;;;4.72;4.32;;;;;;;13.50;94.40;100147.94;10447398;28;20494;-73
2021/09/18 19:19:54;;;;;;;4.15;3.85;;;;;;;13.48;95.42;100142.75;10463688;28;20103;-72
2021/09/18 19:24:56;;;;;;;3.85;3.47;;;;;;;13.35;95.72;100149.47;10463088;28;20381;-71
2021/09/18 19:29:59;;;;;;;3.33;3.03;;;;;;;13.31;94.59;100148.72;10464748;28;20171;-72
2021/09/18 19:35:01;;;;;;;3.00;2.03;;;;;;;13.36;93.65;100141.47;10463702;28;20064;-72
2021/09/18 19:40:05;;;;;;;4.20;3.80;;;;;;;13.08;96.07;100152.28;10463846;28;20048;-71
2021/09/18 19:45:09;;;;;;;4.22;3.83;;;;;;;13.12;95.74;100155.66;10462968;28;20098;-71
2021/09/18 19:50:10;;;;;;;3.50;3.20;;;;;;;13.41;93.59;100156.25;10445025;28;20102;-70
2021/09/18 19:55:13;;;;;;;4.72;3.10;;;;;;;13.24;93.77;100163.13;10461255;28;20045;-71
2021/09/18 20:00:15;;;;;;;4.82;3.97;;;;;;;13.07;94.64;100169.03;10463589;28;20049;-70
2021/09/18 20:05:17;;;;;;;3.63;3.33;;;;;;;13.14;95.14;100175.75;10462158;28;20131;-70
2021/09/18 20:10:18;;;;;;;3.78;3.47;;;;;;;13.01;95.42;100178.97;10461535;28;20048;-72
2021/09/18 20:15:20;;;;;;;3.38;3.10;;;;;;;13.24;93.68;100186.88;10441400;28;20056;-70
2021/09/18 20:20:22;;;;;;;3.78;3.47;;;;;;;13.12;95.43;100182.91;10460249;28;20110;-71
2021/09/18 20:25:23;;;;;;;4.25;3.95;;;;;;;13.25;93.63;100183.31;10441773;28;20045;-69
2021/09/18 20:30:25;;;;;;;5.72;4.95;;;;;;;13.28;93.78;100174.38;10458761;28;20056;-70
2021/09/18 20:35:27;;;;;;;4.38;4.07;;;;;;;13.08;93.55;100173.38;10441569;28;20050;-70
2021/09/18 20:40:29;;;;;;;5.10;4.60;;;;;;;12.91;95.83;100182.88;10439453;28;20564;-70
2021/09/18 20:45:31;;;;;;;4.85;4.55;;;;;;;12.88;95.37;100182.09;10458863;28;20052;-72
2021/09/18 20:50:34;;;;;;;4.13;3.85;;;;;;;12.83;96.62;100186.66;10463259;28;20089;-71
2021/09/18 20:55:36;;;;;;;5.35;4.95;;;;;;;12.65;97.97;100189.16;10444188;28;20114;-71
2021/09/18 21:00:44;;;;;;;5.32;4.93;;;;;;;12.68;98.34;100186.41;10461364;28;20116;-71
2021/09/18 21:05:46;;;;;;;9.27;8.60;;;;;;;12.56;98.70;100187.72;10443406;28;20521;-71
2021/09/18 21:10:49;;;;;;;8.32;7.75;;;;;;;12.51;99.30;100181.75;10461103;28;20049;-70
2021/09/18 21:15:50;;;;;;;5.55;5.05;;;;;;;12.65;97.80;100182.09;10444735;28;20052;-71
2021/09/18 21:20:52;;;;;;;4.97;4.57;;;;;;;12.72;95.63;100188.03;10461965;28;20049;-71
2021/09/18 21:25:55;;;;;;;4.40;4.10;;;;;;;12.60;96.57;100187.56;10444408;28;20095;-71
2021/09/18 21:30:57;;;;;;;3.22;3.03;;;;;;;12.90;94.32;100183.81;10462295;28;20044;-71
2021/09/18 21:35:59;;;;;;;3.08;2.88;;;;;;;12.83;94.70;100186.66;10462145;28;20494;-71
2021/09/18 21:41:01;;;;;;;2.88;2.65;;;;;;;12.88;94.86;100191.75;10457940;28;20057;-71
2021/09/18 21:46:03;;;;;;;3.45;3.25;;;;;;;12.76;95.00;100182.56;10455624;28;20041;-71
2021/09/18 21:51:05;;;;;;;3.20;2.90;;;;;;;12.85;94.27;100181.34;10455484;28;20060;-71
2021/09/18 21:56:06;;;;;;;2.95;2.75;;;;;;;13.09;91.18;100177.72;10437920;28;20044;-71
2021/09/18 22:01:29;;;;;;;2.45;2.05;;;;;;;12.81;90.67;100177.13;10456095;28;20440;-71
2021/09/18 22:06:31;;;;;;;3.10;2.67;;;;;;;12.72;92.80;100174.84;10455607;28;20589;-71
2021/09/18 22:11:35;;;;;;;2.65;2.20;;;;;;;12.85;90.85;100168.16;10455548;28;20124;-71
2021/09/18 22:16:38;;;;;;;3.15;2.72;;;;;;;12.92;91.66;100169.63;10437731;28;20041;-70
2021/09/18 22:21:39;;;;;;;2.80;2.60;;;;;;;12.74;93.24;100167.69;10453954;28;20041;-71
2021/09/18 22:26:41;;;;;;;3.67;2.65;;;;;;;12.68;94.46;100178.50;10454045;28;20045;-71
2021/09/18 22:31:43;;;;;;;3.58;2.95;;;;;;;12.72;92.90;100170.41;10453906;28;20129;-71
2021/09/18 22:36:44;;;;;;;6.18;3.20;;;;;;;12.66;94.25;100170.66;10454315;28;20379;-71
2021/09/18 22:41:46;;;;;;;6.28;3.35;;;;;;;12.58;95.71;100172.72;10453739;28;20051;-71
2021/09/18 22:46:47;;;;;;;2.78;2.58;;;;;;;12.68;95.39;100174.09;10453734;28;20048;-71
2021/09/18 22:51:49;;;;;;;5.53;3.03;;;;;;;12.53;95.38;100172.91;10453826;28;20453;-70
2021/09/18 22:56:51;;;;;;;5.18;3.53;;;;;;;12.48;96.63;100172.19;10454599;28;20122;-71
2021/09/18 23:01:53;;;;;;;5.82;3.30;;;;;;;12.59;95.86;100162.09;10460690;28;20083;-71
2021/09/18 23:06:55;;;;;;;3.85;3.47;;;;;;;12.64;96.68;100159.28;10443034;28;20043;-71
2021/09/18 23:11:57;;;;;;;5.10;3.67;;;;;;;12.63;96.58;100161.06;10460320;28;20053;-71
2021/09/18 23:16:58;;;;;;;5.68;5.28;;;;;;;12.45;97.33;100158.28;10442348;28;20045;-71
2021/09/18 23:22:00;;;;;;;5.03;4.72;;;;;;;12.61;96.30;100154.13;10460694;28;20049;-71
2021/09/18 23:27:04;;;;;;;5.97;5.57;;;;;;;12.56;96.74;100156.94;10443418;28;20095;-70
2021/09/18 23:32:06;;;;;;;6.70;5.97;;;;;;;12.61;96.22;100157.63;10459696;28;20079;-70